Portada
METAR-TAF:

METAR-TAF

Aeropuertos :

Arauca, Colombia

Aeropuerto Santiago Pérez Quiroz

latitud: 07-04N, longitud: 070-44W, altitud: 128 m

Observación

El informe se hizo hace 37 minutos, a las 15:00 UTC
Viento 3 kt del este-sureste
Temperatura 26°C
Humedad 94%
Presión 1014 hPa
Visibilidad 10 km o más
Escasas nubes a una altura de 1000 ft
Cielo nuboso a una altura de 1500 ft

METAR: SKUC 201500Z 12003KT 9999 FEW010 BKN015 26/25 A2995

Hora: 10:37 (15:37 UTC)


TAF: falta

Observaciones y pronósticos meteorológicos de más de 4000 aeropuertos (mensajes METAR y TAF).

Los puntos amarillos y rojos representan las estaciones disponibles.

Ponga el ratón en el punto deseado para ver el nombre de la estación.

Haga clic para ver las observaciones y los pronósticos meteorológicos.

Para cambiar el mapa : haga clic en los botones verdes con una cruz de color negro para hacer un zoom, en el botón verde con un guión para alejar o en las flechas verdes para mapas adyacentes.


METAR-TAF: